WZZ115 LIPZ-UKLI
Flight info
| Callsign | WZZ115 |
|---|---|
| Flight time | 1h 23m |
| Altitude | 37000 |
| Route | ROSKA DCT BARPI DCT VALLU DCT DIMLO DCT LONLA/K0820F370 DCT TAKON |
| Aircraft | A320/M-SDE3FGHIRWY/LB1 |
Departure
| Time | 2026-05-06 12:49 |
|---|---|
| Airport | Venice Marco Polo Airport (LIPZ) |
Arrival
| Time | 2026-05-06 14:12 |
|---|---|
| Airport | Ivano-Frankivsk International Airport (UKLI) |
| Time | Latitude | Longitude | Altitude | Speed | Heading |
|---|---|---|---|---|---|
| 2026-05-06 12:22 | 45.50141 | 12.34025 | 17 ft | 0 kts | 311° |
| 2026-05-06 12:41 | 45.50124 | 12.34052 | 17 ft | 4 kts | 311° |
| 2026-05-06 12:42 | 45.50108 | 12.34081 | 16 ft | 4 kts | 296° |
| 2026-05-06 12:42 | 45.50104 | 12.34108 | 16 ft | 3 kts | 224° |
| 2026-05-06 12:42 | 45.50109 | 12.34115 | 16 ft | 0 kts | 222° |
| 2026-05-06 12:45 | 45.50107 | 12.34113 | 16 ft | 1 kts | 222° |
| 2026-05-06 12:45 | 45.50064 | 12.34071 | 15 ft | 8 kts | 201° |
| 2026-05-06 12:46 | 45.50011 | 12.34060 | 15 ft | 8 kts | 180° |
| 2026-05-06 12:46 | 45.49950 | 12.34062 | 14 ft | 10 kts | 178° |
| 2026-05-06 12:46 | 45.49884 | 12.34026 | 17 ft | 12 kts | 215° |
| 2026-05-06 12:46 | 45.49809 | 12.33936 | 15 ft | 16 kts | 222° |
| 2026-05-06 12:47 | 45.49717 | 12.33818 | 16 ft | 19 kts | 221° |
| 2026-05-06 12:47 | 45.49619 | 12.33694 | 16 ft | 18 kts | 222° |
| 2026-05-06 12:47 | 45.49524 | 12.33609 | 17 ft | 14 kts | 173° |
| 2026-05-06 12:47 | 45.49449 | 12.33701 | 16 ft | 15 kts | 131° |
| 2026-05-06 12:48 | 45.49450 | 12.33826 | 16 ft | 16 kts | 38° |
| 2026-05-06 12:48 | 45.49592 | 12.34008 | 15 ft | 55 kts | 42° |
| 2026-05-06 12:48 | 45.50041 | 12.34583 | 15 ft | 115 kts | 42° |
| 2026-05-06 12:48 | 45.50755 | 12.35499 | 27 ft | 158 kts | 45° |
| 2026-05-06 12:49 | 45.51549 | 12.36562 | 591 ft | 155 kts | 45° |
| 2026-05-06 12:49 | 45.52337 | 12.37620 | 1284 ft | 158 kts | 44° |
| 2026-05-06 12:49 | 45.53139 | 12.38731 | 2004 ft | 163 kts | 54° |
| 2026-05-06 12:49 | 45.53606 | 12.40177 | 2751 ft | 161 kts | 85° |
| 2026-05-06 12:50 | 45.53659 | 12.41730 | 3385 ft | 161 kts | 103° |
| 2026-05-06 12:50 | 45.53462 | 12.43370 | 3848 ft | 174 kts | 105° |
| 2026-05-06 12:50 | 45.52968 | 12.44959 | 4265 ft | 181 kts | 131° |
| 2026-05-06 12:50 | 45.52190 | 12.46458 | 4610 ft | 196 kts | 131° |
| 2026-05-06 12:51 | 45.51324 | 12.48105 | 4787 ft | 220 kts | 131° |
| 2026-05-06 12:51 | 45.50355 | 12.49941 | 5067 ft | 244 kts | 131° |
| 2026-05-06 12:51 | 45.49289 | 12.51967 | 5441 ft | 266 kts | 130° |
| 2026-05-06 12:51 | 45.48162 | 12.54124 | 6109 ft | 275 kts | 130° |
| 2026-05-06 12:52 | 45.47014 | 12.56335 | 6914 ft | 278 kts | 131° |
| 2026-05-06 12:52 | 45.45862 | 12.58565 | 7732 ft | 281 kts | 131° |
| 2026-05-06 12:52 | 45.44698 | 12.60811 | 8542 ft | 283 kts | 131° |
| 2026-05-06 12:52 | 45.43520 | 12.63077 | 9367 ft | 286 kts | 131° |
| 2026-05-06 12:53 | 45.42343 | 12.65332 | 10135 ft | 291 kts | 131° |
| 2026-05-06 12:53 | 45.41093 | 12.67714 | 10410 ft | 312 kts | 131° |
| 2026-05-06 12:53 | 45.39746 | 12.70270 | 10587 ft | 334 kts | 131° |
| 2026-05-06 12:53 | 45.38327 | 12.72961 | 11040 ft | 344 kts | 131° |
| 2026-05-06 12:54 | 45.36884 | 12.75709 | 11683 ft | 349 kts | 131° |
| 2026-05-06 12:54 | 45.35429 | 12.78488 | 12362 ft | 352 kts | 131° |
| 2026-05-06 12:54 | 45.34091 | 12.81444 | 12802 ft | 361 kts | 120° |
| 2026-05-06 12:54 | 45.33347 | 12.84898 | 13249 ft | 373 kts | 102° |
| 2026-05-06 12:55 | 45.33313 | 12.88620 | 13868 ft | 384 kts | 85° |
| 2026-05-06 12:55 | 45.34019 | 12.92261 | 14384 ft | 393 kts | 68° |
| 2026-05-06 12:55 | 45.35352 | 12.95688 | 14921 ft | 399 kts | 61° |
| 2026-05-06 12:55 | 45.36766 | 12.99097 | 15461 ft | 402 kts | 61° |
| 2026-05-06 12:56 | 45.38197 | 13.02532 | 15997 ft | 405 kts | 61° |
| 2026-05-06 12:56 | 45.39640 | 13.06006 | 16528 ft | 409 kts | 61° |
| 2026-05-06 12:56 | 45.41088 | 13.09507 | 17073 ft | 412 kts | 61° |
| 2026-05-06 12:56 | 45.42545 | 13.13044 | 17694 ft | 416 kts | 61° |
| 2026-05-06 12:57 | 45.44013 | 13.16618 | 18301 ft | 420 kts | 61° |
| 2026-05-06 12:57 | 45.45474 | 13.20178 | 18802 ft | 424 kts | 62° |
| 2026-05-06 12:57 | 45.46966 | 13.23815 | 19306 ft | 427 kts | 62° |
| 2026-05-06 12:57 | 45.48471 | 13.27483 | 19772 ft | 431 kts | 62° |
| 2026-05-06 12:58 | 45.49986 | 13.31182 | 20265 ft | 434 kts | 62° |
| 2026-05-06 12:58 | 45.51512 | 13.34911 | 20713 ft | 437 kts | 62° |
| 2026-05-06 12:58 | 45.53043 | 13.38667 | 21191 ft | 439 kts | 62° |
| 2026-05-06 12:58 | 45.54580 | 13.42448 | 21657 ft | 442 kts | 62° |
| 2026-05-06 12:59 | 45.56128 | 13.46264 | 22091 ft | 445 kts | 62° |
| 2026-05-06 12:59 | 45.57685 | 13.50100 | 22511 ft | 449 kts | 62° |
| 2026-05-06 12:59 | 45.59235 | 13.53916 | 22907 ft | 452 kts | 62° |
| 2026-05-06 12:59 | 45.60808 | 13.57810 | 23331 ft | 455 kts | 62° |
| 2026-05-06 13:00 | 45.62393 | 13.61750 | 23698 ft | 458 kts | 62° |
| 2026-05-06 13:00 | 45.63982 | 13.65709 | 24036 ft | 461 kts | 62° |
| 2026-05-06 13:00 | 45.65580 | 13.69702 | 24377 ft | 464 kts | 62° |
| 2026-05-06 13:00 | 45.67184 | 13.73722 | 24709 ft | 467 kts | 62° |
| 2026-05-06 13:01 | 45.68796 | 13.77770 | 25048 ft | 470 kts | 62° |
| 2026-05-06 13:01 | 45.70417 | 13.81847 | 25389 ft | 473 kts | 62° |
| 2026-05-06 13:01 | 45.72022 | 13.85893 | 25700 ft | 475 kts | 62° |
| 2026-05-06 13:01 | 45.73655 | 13.90015 | 26084 ft | 478 kts | 62° |
| 2026-05-06 13:02 | 45.75302 | 13.94166 | 26452 ft | 481 kts | 62° |
| 2026-05-06 13:02 | 45.76958 | 13.98347 | 26795 ft | 484 kts | 62° |
| 2026-05-06 13:02 | 45.78622 | 14.02557 | 27152 ft | 487 kts | 62° |
| 2026-05-06 13:02 | 45.80296 | 14.06792 | 27494 ft | 490 kts | 62° |
| 2026-05-06 13:03 | 45.81977 | 14.11054 | 27815 ft | 493 kts | 62° |
| 2026-05-06 13:03 | 45.83666 | 14.15344 | 28139 ft | 496 kts | 62° |
| 2026-05-06 13:03 | 45.85360 | 14.19663 | 28464 ft | 498 kts | 62° |
| 2026-05-06 13:03 | 45.87043 | 14.23958 | 28748 ft | 501 kts | 62° |
| 2026-05-06 13:04 | 45.88748 | 14.28318 | 29178 ft | 501 kts | 62° |
| 2026-05-06 13:04 | 45.90453 | 14.32683 | 29649 ft | 501 kts | 62° |
| 2026-05-06 13:04 | 45.92154 | 14.37044 | 30058 ft | 500 kts | 61° |
| 2026-05-06 13:04 | 45.93849 | 14.41400 | 30489 ft | 499 kts | 62° |
| 2026-05-06 13:05 | 45.95542 | 14.45749 | 30882 ft | 498 kts | 62° |
| 2026-05-06 13:05 | 45.97228 | 14.50077 | 31305 ft | 497 kts | 62° |
| 2026-05-06 13:05 | 45.98907 | 14.54390 | 31718 ft | 496 kts | 62° |
| 2026-05-06 13:05 | 46.00587 | 14.58720 | 32131 ft | 495 kts | 62° |
| 2026-05-06 13:06 | 46.02248 | 14.63018 | 32573 ft | 494 kts | 62° |
| 2026-05-06 13:06 | 46.03916 | 14.67345 | 33020 ft | 494 kts | 62° |
| 2026-05-06 13:06 | 46.05553 | 14.71601 | 33487 ft | 493 kts | 62° |
| 2026-05-06 13:06 | 46.07208 | 14.75916 | 33894 ft | 492 kts | 62° |
| 2026-05-06 13:07 | 46.08862 | 14.80228 | 34284 ft | 491 kts | 62° |
| 2026-05-06 13:07 | 46.10509 | 14.84525 | 34638 ft | 489 kts | 62° |
| 2026-05-06 13:07 | 46.12149 | 14.88809 | 34984 ft | 487 kts | 62° |
| 2026-05-06 13:07 | 46.13785 | 14.93079 | 35380 ft | 484 kts | 61° |
| 2026-05-06 13:08 | 46.15405 | 14.97318 | 35703 ft | 483 kts | 62° |
| 2026-05-06 13:08 | 46.17023 | 15.01556 | 36074 ft | 481 kts | 62° |
| 2026-05-06 13:08 | 46.18614 | 15.05720 | 36414 ft | 479 kts | 62° |
| 2026-05-06 13:08 | 46.20217 | 15.09926 | 36771 ft | 477 kts | 62° |
| 2026-05-06 13:09 | 46.21814 | 15.14130 | 36918 ft | 478 kts | 62° |
| 2026-05-06 13:09 | 46.25021 | 15.22631 | 36938 ft | 484 kts | 62° |
| 2026-05-06 13:10 | 46.28241 | 15.31185 | 36930 ft | 485 kts | 62° |
| 2026-05-06 13:10 | 46.31450 | 15.39757 | 36916 ft | 485 kts | 62° |
| 2026-05-06 13:11 | 46.34581 | 15.48320 | 36924 ft | 485 kts | 62° |
| 2026-05-06 13:11 | 46.37725 | 15.56989 | 36924 ft | 487 kts | 62° |
| 2026-05-06 13:12 | 46.40880 | 15.65670 | 36912 ft | 487 kts | 62° |
| 2026-05-06 13:12 | 46.44023 | 15.74305 | 36919 ft | 488 kts | 62° |
| 2026-05-06 13:13 | 46.47181 | 15.83018 | 36923 ft | 488 kts | 62° |
| 2026-05-06 13:13 | 46.50326 | 15.91750 | 36934 ft | 488 kts | 62° |
| 2026-05-06 13:14 | 46.53468 | 16.00475 | 36923 ft | 488 kts | 62° |
| 2026-05-06 13:14 | 46.56607 | 16.09213 | 36926 ft | 488 kts | 63° |
| 2026-05-06 13:15 | 46.59710 | 16.17901 | 36926 ft | 488 kts | 63° |
| 2026-05-06 13:15 | 46.62826 | 16.26658 | 36925 ft | 487 kts | 63° |
| 2026-05-06 13:16 | 46.65935 | 16.35433 | 36929 ft | 487 kts | 63° |
| 2026-05-06 13:16 | 46.69008 | 16.44229 | 36911 ft | 487 kts | 64° |
| 2026-05-06 13:17 | 46.71888 | 16.53153 | 36919 ft | 487 kts | 66° |
| 2026-05-06 13:17 | 46.74628 | 16.62097 | 36921 ft | 486 kts | 66° |
| 2026-05-06 13:18 | 46.77398 | 16.71095 | 36912 ft | 486 kts | 65° |
| 2026-05-06 13:18 | 46.80204 | 16.80072 | 36921 ft | 487 kts | 65° |
| 2026-05-06 13:19 | 46.83023 | 16.89064 | 36924 ft | 487 kts | 65° |
| 2026-05-06 13:19 | 46.85804 | 16.98026 | 36907 ft | 488 kts | 65° |
| 2026-05-06 13:20 | 46.88583 | 17.07072 | 36913 ft | 488 kts | 65° |
| 2026-05-06 13:20 | 46.91362 | 17.16136 | 36920 ft | 488 kts | 65° |
| 2026-05-06 13:21 | 46.94146 | 17.25205 | 36930 ft | 489 kts | 66° |
| 2026-05-06 13:21 | 46.96905 | 17.34219 | 36925 ft | 489 kts | 66° |
| 2026-05-06 13:22 | 46.99675 | 17.43303 | 36914 ft | 488 kts | 66° |
| 2026-05-06 13:22 | 47.02425 | 17.52399 | 36913 ft | 488 kts | 66° |
| 2026-05-06 13:23 | 47.05171 | 17.61504 | 36919 ft | 488 kts | 66° |
| 2026-05-06 13:23 | 47.07890 | 17.70541 | 36932 ft | 487 kts | 65° |
| 2026-05-06 13:24 | 47.10616 | 17.79640 | 36923 ft | 487 kts | 66° |
| 2026-05-06 13:24 | 47.13332 | 17.88730 | 36922 ft | 486 kts | 66° |
| 2026-05-06 13:25 | 47.16045 | 17.97826 | 36924 ft | 486 kts | 66° |
| 2026-05-06 13:25 | 47.18735 | 18.06872 | 36921 ft | 486 kts | 66° |
| 2026-05-06 13:26 | 47.21418 | 18.15962 | 36933 ft | 485 kts | 66° |
| 2026-05-06 13:26 | 47.24090 | 18.25062 | 36931 ft | 484 kts | 66° |
| 2026-05-06 13:27 | 47.26756 | 18.34147 | 36928 ft | 483 kts | 66° |
| 2026-05-06 13:27 | 47.29412 | 18.43226 | 36926 ft | 483 kts | 66° |
| 2026-05-06 13:28 | 47.32033 | 18.52258 | 36922 ft | 483 kts | 66° |
| 2026-05-06 13:28 | 47.34676 | 18.61362 | 36914 ft | 483 kts | 66° |
| 2026-05-06 13:29 | 47.37311 | 18.70466 | 36915 ft | 483 kts | 66° |
| 2026-05-06 13:29 | 47.39927 | 18.79545 | 36924 ft | 484 kts | 66° |
| 2026-05-06 13:30 | 47.42544 | 18.88690 | 36930 ft | 484 kts | 66° |
| 2026-05-06 13:30 | 47.45154 | 18.97855 | 36934 ft | 484 kts | 66° |
| 2026-05-06 13:31 | 47.47763 | 19.07018 | 36956 ft | 484 kts | 66° |
| 2026-05-06 13:31 | 47.50367 | 19.16191 | 36933 ft | 484 kts | 66° |
| 2026-05-06 13:32 | 47.52952 | 19.25320 | 36932 ft | 485 kts | 66° |
| 2026-05-06 13:32 | 47.55545 | 19.34531 | 36930 ft | 485 kts | 66° |
| 2026-05-06 13:33 | 47.58127 | 19.43759 | 36926 ft | 485 kts | 66° |
| 2026-05-06 13:33 | 47.60713 | 19.53005 | 36927 ft | 486 kts | 66° |
| 2026-05-06 13:34 | 47.63290 | 19.62253 | 36936 ft | 485 kts | 67° |
| 2026-05-06 13:34 | 47.65837 | 19.71452 | 36928 ft | 486 kts | 66° |
| 2026-05-06 13:35 | 47.68396 | 19.80720 | 36922 ft | 486 kts | 67° |
| 2026-05-06 13:35 | 47.70943 | 19.90004 | 36927 ft | 486 kts | 67° |
| 2026-05-06 13:36 | 47.73486 | 19.99298 | 36931 ft | 486 kts | 67° |
| 2026-05-06 13:36 | 47.76005 | 20.08533 | 36938 ft | 485 kts | 67° |
| 2026-05-06 13:37 | 47.78534 | 20.17832 | 36936 ft | 485 kts | 67° |
| 2026-05-06 13:37 | 47.81054 | 20.27132 | 36929 ft | 485 kts | 67° |
| 2026-05-06 13:38 | 47.83565 | 20.36445 | 36929 ft | 484 kts | 67° |
| 2026-05-06 13:38 | 47.86063 | 20.45753 | 36930 ft | 484 kts | 67° |
| 2026-05-06 13:39 | 47.88540 | 20.55005 | 36935 ft | 484 kts | 67° |
| 2026-05-06 13:39 | 47.91023 | 20.64323 | 36938 ft | 484 kts | 67° |
| 2026-05-06 13:40 | 47.93495 | 20.73640 | 36937 ft | 483 kts | 68° |
| 2026-05-06 13:40 | 47.95953 | 20.82955 | 36929 ft | 482 kts | 68° |
| 2026-05-06 13:41 | 47.98389 | 20.92192 | 36936 ft | 481 kts | 68° |
| 2026-05-06 13:41 | 48.00827 | 21.01486 | 36941 ft | 480 kts | 68° |
| 2026-05-06 13:42 | 48.03255 | 21.10785 | 36947 ft | 480 kts | 68° |
| 2026-05-06 13:42 | 48.05671 | 21.20074 | 36940 ft | 479 kts | 68° |
| 2026-05-06 13:43 | 48.08057 | 21.29303 | 36939 ft | 479 kts | 68° |
| 2026-05-06 13:43 | 48.10454 | 21.38598 | 36936 ft | 479 kts | 68° |
| 2026-05-06 13:44 | 48.12847 | 21.47897 | 36934 ft | 479 kts | 68° |
| 2026-05-06 13:44 | 48.15232 | 21.57206 | 36956 ft | 479 kts | 68° |
| 2026-05-06 13:45 | 48.17587 | 21.66457 | 36955 ft | 478 kts | 68° |
| 2026-05-06 13:45 | 48.21120 | 21.80436 | 36950 ft | 478 kts | 68° |
| 2026-05-06 13:46 | 48.23475 | 21.89766 | 36943 ft | 478 kts | 68° |
| 2026-05-06 13:46 | 48.25823 | 21.99083 | 36943 ft | 477 kts | 68° |
| 2026-05-06 13:47 | 48.28139 | 22.08330 | 36945 ft | 476 kts | 68° |
| 2026-05-06 13:47 | 48.30455 | 22.17640 | 36945 ft | 476 kts | 68° |
| 2026-05-06 13:48 | 48.32766 | 22.26953 | 36938 ft | 476 kts | 69° |
| 2026-05-06 13:48 | 48.35050 | 22.36286 | 36936 ft | 475 kts | 69° |
| 2026-05-06 13:49 | 48.36143 | 22.40961 | 36809 ft | 474 kts | 70° |
| 2026-05-06 13:49 | 48.37199 | 22.45596 | 36236 ft | 474 kts | 70° |
| 2026-05-06 13:49 | 48.38254 | 22.50294 | 35628 ft | 474 kts | 71° |
| 2026-05-06 13:49 | 48.39306 | 22.54993 | 35037 ft | 474 kts | 71° |
| 2026-05-06 13:50 | 48.40362 | 22.59686 | 34487 ft | 473 kts | 71° |
| 2026-05-06 13:50 | 48.41425 | 22.64376 | 33883 ft | 473 kts | 71° |
| 2026-05-06 13:50 | 48.42492 | 22.69065 | 33174 ft | 474 kts | 71° |
| 2026-05-06 13:50 | 48.43560 | 22.73760 | 32433 ft | 475 kts | 70° |
| 2026-05-06 13:51 | 48.44631 | 22.78468 | 31686 ft | 476 kts | 70° |
| 2026-05-06 13:51 | 48.45701 | 22.83190 | 30930 ft | 477 kts | 70° |
| 2026-05-06 13:51 | 48.46754 | 22.87854 | 30323 ft | 475 kts | 70° |
| 2026-05-06 13:51 | 48.47809 | 22.92547 | 29775 ft | 471 kts | 70° |
| 2026-05-06 13:52 | 48.48853 | 22.97196 | 29154 ft | 466 kts | 70° |
| 2026-05-06 13:52 | 48.49885 | 23.01805 | 28530 ft | 462 kts | 70° |
| 2026-05-06 13:52 | 48.50904 | 23.06375 | 27960 ft | 458 kts | 70° |
| 2026-05-06 13:52 | 48.51912 | 23.10907 | 27374 ft | 454 kts | 71° |
| 2026-05-06 13:53 | 48.52907 | 23.15395 | 26818 ft | 450 kts | 71° |
| 2026-05-06 13:53 | 48.53893 | 23.19851 | 26222 ft | 447 kts | 71° |
| 2026-05-06 13:53 | 48.54891 | 23.24213 | 25698 ft | 442 kts | 70° |
| 2026-05-06 13:53 | 48.55931 | 23.28572 | 25111 ft | 440 kts | 70° |
| 2026-05-06 13:54 | 48.56982 | 23.32891 | 24622 ft | 436 kts | 70° |
| 2026-05-06 13:54 | 48.58025 | 23.37173 | 24044 ft | 434 kts | 70° |
| 2026-05-06 13:54 | 48.59058 | 23.41439 | 23578 ft | 430 kts | 70° |
| 2026-05-06 13:54 | 48.60071 | 23.45669 | 23001 ft | 427 kts | 71° |
| 2026-05-06 13:55 | 48.61067 | 23.49884 | 22422 ft | 425 kts | 71° |
| 2026-05-06 13:55 | 48.62048 | 23.54064 | 21928 ft | 421 kts | 71° |
| 2026-05-06 13:55 | 48.63020 | 23.58226 | 21386 ft | 419 kts | 71° |
| 2026-05-06 13:55 | 48.63973 | 23.62297 | 20907 ft | 414 kts | 71° |
| 2026-05-06 13:56 | 48.64934 | 23.66405 | 20324 ft | 414 kts | 71° |
| 2026-05-06 13:56 | 48.65890 | 23.70493 | 19881 ft | 410 kts | 71° |
| 2026-05-06 13:56 | 48.66828 | 23.74520 | 19337 ft | 408 kts | 71° |
| 2026-05-06 13:56 | 48.67774 | 23.78583 | 18830 ft | 406 kts | 71° |
| 2026-05-06 13:57 | 48.68707 | 23.82587 | 18376 ft | 402 kts | 71° |
| 2026-05-06 13:57 | 48.69623 | 23.86520 | 17822 ft | 401 kts | 71° |
| 2026-05-06 13:57 | 48.70543 | 23.90481 | 17289 ft | 397 kts | 72° |
| 2026-05-06 13:57 | 48.71453 | 23.94416 | 16713 ft | 395 kts | 72° |
| 2026-05-06 13:58 | 48.72353 | 23.98332 | 16193 ft | 392 kts | 72° |
| 2026-05-06 13:58 | 48.73245 | 24.02213 | 15693 ft | 389 kts | 72° |
| 2026-05-06 13:58 | 48.74132 | 24.06069 | 15172 ft | 387 kts | 73° |
| 2026-05-06 13:58 | 48.75013 | 24.09897 | 14673 ft | 383 kts | 73° |
| 2026-05-06 13:59 | 48.75888 | 24.13702 | 14182 ft | 381 kts | 73° |
| 2026-05-06 13:59 | 48.76750 | 24.17462 | 13808 ft | 374 kts | 73° |
| 2026-05-06 13:59 | 48.77594 | 24.21166 | 13310 ft | 370 kts | 73° |
| 2026-05-06 13:59 | 48.78419 | 24.24798 | 12780 ft | 368 kts | 74° |
| 2026-05-06 14:00 | 48.79251 | 24.28453 | 12244 ft | 365 kts | 73° |
| 2026-05-06 14:00 | 48.80073 | 24.32065 | 11820 ft | 360 kts | 73° |
| 2026-05-06 14:00 | 48.80888 | 24.35641 | 11337 ft | 357 kts | 73° |
| 2026-05-06 14:00 | 48.81692 | 24.39178 | 10856 ft | 354 kts | 73° |
| 2026-05-06 14:01 | 48.82487 | 24.42694 | 10575 ft | 346 kts | 73° |
| 2026-05-06 14:01 | 48.83254 | 24.46095 | 10450 ft | 335 kts | 74° |
| 2026-05-06 14:01 | 48.83995 | 24.49383 | 10334 ft | 324 kts | 74° |
| 2026-05-06 14:01 | 48.84703 | 24.52524 | 10204 ft | 314 kts | 74° |
| 2026-05-06 14:02 | 48.85401 | 24.55607 | 9983 ft | 305 kts | 74° |
| 2026-05-06 14:02 | 48.86082 | 24.58638 | 9584 ft | 302 kts | 74° |
| 2026-05-06 14:02 | 48.86754 | 24.61648 | 9128 ft | 300 kts | 74° |
| 2026-05-06 14:02 | 48.87418 | 24.64632 | 8573 ft | 297 kts | 74° |
| 2026-05-06 14:03 | 48.88076 | 24.67596 | 7998 ft | 295 kts | 74° |
| 2026-05-06 14:03 | 48.88734 | 24.70549 | 7401 ft | 294 kts | 74° |
| 2026-05-06 14:03 | 48.89179 | 24.73555 | 7005 ft | 290 kts | 85° |
| 2026-05-06 14:03 | 48.89446 | 24.76581 | 6708 ft | 289 kts | 85° |
| 2026-05-06 14:04 | 48.89720 | 24.79578 | 6361 ft | 290 kts | 85° |
| 2026-05-06 14:04 | 48.90001 | 24.82606 | 6082 ft | 288 kts | 85° |
| 2026-05-06 14:04 | 48.90278 | 24.85622 | 5744 ft | 288 kts | 85° |
| 2026-05-06 14:04 | 48.90551 | 24.88630 | 5465 ft | 286 kts | 85° |
| 2026-05-06 14:05 | 48.90817 | 24.91595 | 4949 ft | 282 kts | 84° |
| 2026-05-06 14:05 | 48.91079 | 24.94550 | 4510 ft | 282 kts | 85° |
| 2026-05-06 14:05 | 48.91337 | 24.97468 | 4364 ft | 274 kts | 86° |
| 2026-05-06 14:05 | 48.91187 | 25.00261 | 4231 ft | 260 kts | 112° |
| 2026-05-06 14:06 | 48.90305 | 25.02528 | 4106 ft | 243 kts | 138° |
| 2026-05-06 14:06 | 48.88990 | 25.03927 | 3980 ft | 227 kts | 161° |
| 2026-05-06 14:06 | 48.87501 | 25.04429 | 3846 ft | 215 kts | 182° |
| 2026-05-06 14:06 | 48.86057 | 25.04070 | 3642 ft | 209 kts | 203° |
| 2026-05-06 14:07 | 48.84823 | 25.02958 | 3426 ft | 206 kts | 221° |
| 2026-05-06 14:07 | 48.83926 | 25.01255 | 3148 ft | 208 kts | 242° |
| 2026-05-06 14:07 | 48.83492 | 24.99183 | 3006 ft | 208 kts | 260° |
| 2026-05-06 14:07 | 48.83571 | 24.97015 | 3005 ft | 204 kts | 281° |
| 2026-05-06 14:08 | 48.83943 | 24.94979 | 3006 ft | 198 kts | 281° |
| 2026-05-06 14:08 | 48.84297 | 24.92967 | 3000 ft | 196 kts | 280° |
| 2026-05-06 14:08 | 48.84638 | 24.90994 | 2997 ft | 197 kts | 281° |
| 2026-05-06 14:08 | 48.84982 | 24.88994 | 2975 ft | 196 kts | 282° |
| 2026-05-06 14:09 | 48.85328 | 24.86982 | 2973 ft | 196 kts | 281° |
| 2026-05-06 14:09 | 48.85671 | 24.84977 | 2947 ft | 197 kts | 281° |
| 2026-05-06 14:09 | 48.86011 | 24.82934 | 2649 ft | 201 kts | 280° |
| 2026-05-06 14:09 | 48.86346 | 24.80907 | 2339 ft | 191 kts | 280° |
| 2026-05-06 14:10 | 48.86658 | 24.79035 | 2095 ft | 173 kts | 278° |
| 2026-05-06 14:10 | 48.86936 | 24.77388 | 1895 ft | 151 kts | 276° |
| 2026-05-06 14:10 | 48.87179 | 24.75922 | 1703 ft | 141 kts | 277° |
| 2026-05-06 14:10 | 48.87400 | 24.74494 | 1498 ft | 138 kts | 277° |
| 2026-05-06 14:11 | 48.87628 | 24.73080 | 1298 ft | 140 kts | 280° |
| 2026-05-06 14:11 | 48.87858 | 24.71629 | 1118 ft | 142 kts | 281° |
| 2026-05-06 14:11 | 48.88102 | 24.70193 | 961 ft | 139 kts | 279° |
| 2026-05-06 14:11 | 48.88317 | 24.68853 | 916 ft | 113 kts | 285° |
| 2026-05-06 14:12 | 48.88470 | 24.67947 | 924 ft | 64 kts | 284° |
| 2026-05-06 14:12 | 48.88530 | 24.67630 | 926 ft | 7 kts | 316° |
| 2026-05-06 14:12 | 48.88528 | 24.67605 | 926 ft | 1 kts | 169° |
| 2026-05-06 14:12 | 48.88514 | 24.67667 | 926 ft | 10 kts | 101° |
| 2026-05-06 14:13 | 48.88493 | 24.67806 | 923 ft | 15 kts | 104° |
| 2026-05-06 14:13 | 48.88466 | 24.67970 | 924 ft | 18 kts | 103° |
| 2026-05-06 14:13 | 48.88430 | 24.68191 | 928 ft | 25 kts | 104° |
| 2026-05-06 14:13 | 48.88381 | 24.68487 | 920 ft | 33 kts | 104° |
| 2026-05-06 14:14 | 48.88320 | 24.68860 | 916 ft | 40 kts | 104° |
| 2026-05-06 14:14 | 48.88251 | 24.69288 | 922 ft | 43 kts | 104° |
| 2026-05-06 14:14 | 48.88178 | 24.69726 | 921 ft | 43 kts | 104° |
| 2026-05-06 14:14 | 48.88129 | 24.70031 | 918 ft | 13 kts | 104° |
| 2026-05-06 14:15 | 48.88185 | 24.70133 | 913 ft | 15 kts | 33° |
| 2026-05-06 14:15 | 48.88281 | 24.70230 | 914 ft | 19 kts | 33° |
| 2026-05-06 14:15 | 48.88397 | 24.70347 | 914 ft | 12 kts | 34° |
| 2026-05-06 14:15 | 48.88468 | 24.70352 | 912 ft | 12 kts | 342° |
| 2026-05-06 14:16 | 48.88551 | 24.70313 | 912 ft | 13 kts | 342° |
| 2026-05-06 14:16 | 48.88643 | 24.70269 | 913 ft | 12 kts | 342° |
| 2026-05-06 14:16 | 48.88696 | 24.70303 | 915 ft | 10 kts | 72° |
| 2026-05-06 14:16 | 48.88707 | 24.70410 | 912 ft | 10 kts | 80° |
| 2026-05-06 14:17 | 48.88687 | 24.70463 | 913 ft | 7 kts | 162° |
| 2026-05-06 14:17 | 48.88663 | 24.70472 | 912 ft | 0 kts | 166° |